Elblag, Poland
Current Conditions -  °F | °C
As of 1:00 PM on Friday 28 Nov 2014 (Local Time) from EPGD Reporting Station
Broken Clouds Broken Clouds  
Wind Chill: 18°   Ceiling: 1100
Heat Index: 27°   Visibility: 6mi
Dew Point: 25°   Wind: 8mph
Humidity: 93%   Direction: 130°SE
Pressure: 30.33"   Gusts: NA
Location:  54.18°N, 19.4°E
Report Text: EPGD 281100Z 13007KT 100V170 9999 BKN011 M03/M04 Q1027
Loading
Personal Weather Stations






























Interactive Weather Map New forecast layout! Learn more

10-Day Weather Forecast

Advertisements
Track Severe Weather on mobile